KCID/CID METAR and TAF weather

Enter ICAO airport designator
Station Type Date Time Source
KCID METAR 2019/10/23 07:52 UTC NOAA

KCID 230752Z AUTO 23005KT 10SM CLR 02/M01 A2984 RMK AO2 SLP110 T00171006


Station Type Date Time Source
KCID Decoded METAR 2019/10/23 07:52 UTC NOAA

CEDAR RAPIDS AIRPORT, IA, United States (KCID) 41-53N 91-43W
Oct 23, 2019 - 03:52 AM EDT / 2019.10.23 0752 UTC
Wind: from the SW (230 degrees) at 6 MPH (5 KT):0
Visibility: 10 mile(s):0
Sky conditions: clear
Temperature: 35.1 F (1.7 C)
Dew Point: 30.9 F (-0.6 C)
Relative Humidity: 84%
Pressure (altimeter): 29.84 in. Hg (1010 hPa)
ob: KCID 230752Z AUTO 23005KT 10SM CLR 02/M01 A2984 RMK AO2 SLP110 T00171006
cycle: 8

Station Type Date Time Source
KCID TAF 2019/10/23 06:46 UTC NOAA

TAF KCID 230544Z 2306/2406 23008KT P6SM SKC
FM231100 18007KT P6SM OVC090
FM231800 23012KT P6SM BKN050
FM232300 30012KT P6SM BKN100

Example: see airport list